sensor_id;sensor_type;location;lat;lon;timestamp;pressure;altitude;pressure_sealevel;temperature;humidity
61697;BME280;47610;52.252;20.922;2022-10-16T00:03:11;100355.23;;;13.94;67.87
61697;BME280;47610;52.252;20.922;2022-10-16T00:08:33;100355.80;;;13.98;67.98
61697;BME280;47610;52.252;20.922;2022-10-16T00:13:59;100349.77;;;14.02;68.12
61697;BME280;47610;52.252;20.922;2022-10-16T00:19:22;100345.45;;;14.06;68.19
61697;BME280;47610;52.252;20.922;2022-10-16T00:24:45;100345.31;;;14.11;68.19
61697;BME280;47610;52.252;20.922;2022-10-16T00:30:10;100345.50;;;14.13;68.21
61697;BME280;47610;52.252;20.922;2022-10-16T00:35:33;100349.79;;;14.18;68.11
61697;BME280;47610;52.252;20.922;2022-10-16T00:40:56;100354.43;;;14.23;68.16
61697;BME280;47610;52.252;20.922;2022-10-16T00:46:21;100358.45;;;14.20;67.96
61697;BME280;47610;52.252;20.922;2022-10-16T00:51:48;100361.97;;;14.16;68.01
61697;BME280;47610;52.252;20.922;2022-10-16T00:57:12;100363.17;;;14.08;67.92
61697;BME280;47610;52.252;20.922;2022-10-16T01:02:34;100369.11;;;14.01;67.75
61697;BME280;47610;52.252;20.922;2022-10-16T01:08:00;100371.52;;;13.94;67.74
61697;BME280;47610;52.252;20.922;2022-10-16T01:13:27;100378.72;;;13.90;68.32
61697;BME280;47610;52.252;20.922;2022-10-16T01:18:57;100375.22;;;13.91;68.69
61697;BME280;47610;52.252;20.922;2022-10-16T01:24:31;100366.73;;;13.92;68.81
61697;BME280;47610;52.252;20.922;2022-10-16T01:29:58;100379.60;;;13.93;68.67
61697;BME280;47610;52.252;20.922;2022-10-16T01:35:27;100391.08;;;13.93;68.56
61697;BME280;47610;52.252;20.922;2022-10-16T01:40:54;100390.34;;;13.90;68.60
61697;BME280;47610;52.252;20.922;2022-10-16T01:46:21;100394.16;;;13.86;68.48
61697;BME280;47610;52.252;20.922;2022-10-16T01:51:49;100388.77;;;13.78;68.63
61697;BME280;47610;52.252;20.922;2022-10-16T01:57:14;100382.38;;;13.72;69.02
61697;BME280;47610;52.252;20.922;2022-10-16T02:02:39;100374.19;;;13.69;69.25
61697;BME280;47610;52.252;20.922;2022-10-16T02:08:04;100386.33;;;13.67;69.35
61697;BME280;47610;52.252;20.922;2022-10-16T02:13:30;100385.31;;;13.63;69.45
61697;BME280;47610;52.252;20.922;2022-10-16T02:18:54;100380.16;;;13.61;69.47
61697;BME280;47610;52.252;20.922;2022-10-16T02:24:21;100380.48;;;13.57;69.43
61697;BME280;47610;52.252;20.922;2022-10-16T02:29:49;100379.20;;;13.52;69.63
61697;BME280;47610;52.252;20.922;2022-10-16T02:35:15;100374.62;;;13.47;69.76
61697;BME280;47610;52.252;20.922;2022-10-16T02:40:40;100376.80;;;13.45;69.84
61697;BME280;47610;52.252;20.922;2022-10-16T02:46:02;100384.48;;;13.42;69.79
61697;BME280;47610;52.252;20.922;2022-10-16T02:51:25;100387.37;;;13.39;69.89
61697;BME280;47610;52.252;20.922;2022-10-16T02:56:47;100390.14;;;13.39;69.94
61697;BME280;47610;52.252;20.922;2022-10-16T03:02:09;100396.90;;;13.39;69.97
61697;BME280;47610;52.252;20.922;2022-10-16T03:07:31;100402.54;;;13.39;70.01
61697;BME280;47610;52.252;20.922;2022-10-16T03:12:54;100408.70;;;13.37;70.15
61697;BME280;47610;52.252;20.922;2022-10-16T03:18:16;100410.61;;;13.33;70.13
61697;BME280;47610;52.252;20.922;2022-10-16T03:23:38;100419.23;;;13.35;70.32
61697;BME280;47610;52.252;20.922;2022-10-16T03:29:00;100416.88;;;13.37;70.21
61697;BME280;47610;52.252;20.922;2022-10-16T03:34:22;100421.16;;;13.40;70.11
61697;BME280;47610;52.252;20.922;2022-10-16T03:39:44;100418.08;;;13.39;70.07
61697;BME280;47610;52.252;20.922;2022-10-16T03:45:08;100425.05;;;13.38;70.01
61697;BME280;47610;52.252;20.922;2022-10-16T03:50:31;100424.90;;;13.36;70.03
61697;BME280;47610;52.252;20.922;2022-10-16T03:55:52;100432.01;;;13.35;70.16
61697;BME280;47610;52.252;20.922;2022-10-16T04:01:14;100432.48;;;13.31;70.11
61697;BME280;47610;52.252;20.922;2022-10-16T04:06:37;100435.56;;;13.25;70.26
61697;BME280;47610;52.252;20.922;2022-10-16T04:11:58;100433.65;;;13.17;70.41
61697;BME280;47610;52.252;20.922;2022-10-16T04:17:21;100430.30;;;13.09;70.95
61697;BME280;47610;52.252;20.922;2022-10-16T04:22:44;100440.13;;;13.04;70.97
61697;BME280;47610;52.252;20.922;2022-10-16T04:28:07;100440.80;;;13.02;71.28
61697;BME280;47610;52.252;20.922;2022-10-16T04:33:29;100445.42;;;13.00;71.26
61697;BME280;47610;52.252;20.922;2022-10-16T04:38:52;100443.24;;;12.95;71.30
61697;BME280;47610;52.252;20.922;2022-10-16T04:44:16;100445.63;;;12.95;71.57
61697;BME280;47610;52.252;20.922;2022-10-16T04:49:38;100451.81;;;12.88;71.92
61697;BME280;47610;52.252;20.922;2022-10-16T04:55:00;100457.49;;;12.83;71.92
61697;BME280;47610;52.252;20.922;2022-10-16T05:00:23;100459.04;;;12.76;72.15
61697;BME280;47610;52.252;20.922;2022-10-16T05:05:46;100461.81;;;12.69;72.38
61697;BME280;47610;52.252;20.922;2022-10-16T05:11:10;100471.13;;;12.64;72.60
61697;BME280;47610;52.252;20.922;2022-10-16T05:16:32;100484.84;;;12.61;72.60
61697;BME280;47610;52.252;20.922;2022-10-16T05:21:54;100487.77;;;12.60;72.57
61697;BME280;47610;52.252;20.922;2022-10-16T05:27:17;100485.85;;;12.59;72.84
61697;BME280;47610;52.252;20.922;2022-10-16T05:32:39;100481.34;;;12.57;72.87
61697;BME280;47610;52.252;20.922;2022-10-16T05:38:00;100481.20;;;12.53;72.93
61697;BME280;47610;52.252;20.922;2022-10-16T05:43:23;100475.06;;;12.52;73.01
61697;BME280;47610;52.252;20.922;2022-10-16T05:48:44;100484.13;;;12.52;73.01
61697;BME280;47610;52.252;20.922;2022-10-16T05:54:07;100491.86;;;12.50;73.28
61697;BME280;47610;52.252;20.922;2022-10-16T05:59:29;100501.71;;;12.49;73.21
61697;BME280;47610;52.252;20.922;2022-10-16T06:04:52;100507.67;;;12.47;73.24
61697;BME280;47610;52.252;20.922;2022-10-16T06:10:14;100510.08;;;12.45;73.44
61697;BME280;47610;52.252;20.922;2022-10-16T06:15:36;100514.59;;;12.45;73.55
61697;BME280;47610;52.252;20.922;2022-10-16T06:20:59;100514.75;;;12.46;73.44
61697;BME280;47610;52.252;20.922;2022-10-16T06:26:22;100518.36;;;12.53;73.67
61697;BME280;47610;52.252;20.922;2022-10-16T06:33:16;100527.88;;;12.67;73.65
61697;BME280;47610;52.252;20.922;2022-10-16T06:38:39;100535.77;;;12.77;73.28
61697;BME280;47610;52.252;20.922;2022-10-16T06:44:04;100539.20;;;12.93;73.14
61697;BME280;47610;52.252;20.922;2022-10-16T06:49:27;100546.21;;;13.14;72.56
61697;BME280;47610;52.252;20.922;2022-10-16T06:54:49;100548.83;;;13.42;72.14
61697;BME280;47610;52.252;20.922;2022-10-16T07:00:12;100551.64;;;13.72;71.40
61697;BME280;47610;52.252;20.922;2022-10-16T07:05:39;100554.92;;;14.06;70.44
61697;BME280;47610;52.252;20.922;2022-10-16T07:11:04;100560.39;;;14.24;69.95
61697;BME280;47610;52.252;20.922;2022-10-16T07:16:30;100568.11;;;14.27;69.48
61697;BME280;47610;52.252;20.922;2022-10-16T07:21:53;100577.05;;;14.22;69.42
61697;BME280;47610;52.252;20.922;2022-10-16T07:27:15;100578.21;;;14.17;69.38
61697;BME280;47610;52.252;20.922;2022-10-16T07:32:38;100568.68;;;14.16;69.54
61697;BME280;47610;52.252;20.922;2022-10-16T07:38:04;100554.80;;;14.29;69.35
61697;BME280;47610;52.252;20.922;2022-10-16T07:43:27;100553.95;;;14.58;68.89
61697;BME280;47610;52.252;20.922;2022-10-16T07:48:50;100554.42;;;14.86;68.09
61697;BME280;47610;52.252;20.922;2022-10-16T07:54:13;100572.13;;;15.28;67.73
61697;BME280;47610;52.252;20.922;2022-10-16T07:59:36;100561.90;;;15.84;66.73
61697;BME280;47610;52.252;20.922;2022-10-16T08:04:58;100569.14;;;16.28;65.37
61697;BME280;47610;52.252;20.922;2022-10-16T08:10:23;100583.70;;;16.51;64.55
61697;BME280;47610;52.252;20.922;2022-10-16T08:15:45;100584.39;;;16.77;64.12
61697;BME280;47610;52.252;20.922;2022-10-16T08:21:11;100583.28;;;16.93;63.22
61697;BME280;47610;52.252;20.922;2022-10-16T08:26:36;100587.52;;;16.97;62.85
61697;BME280;47610;52.252;20.922;2022-10-16T08:31:58;100595.05;;;17.13;62.82
61697;BME280;47610;52.252;20.922;2022-10-16T08:37:21;100608.58;;;17.35;62.74
61697;BME280;47610;52.252;20.922;2022-10-16T08:42:52;100609.58;;;17.46;62.40
61697;BME280;47610;52.252;20.922;2022-10-16T08:48:21;100607.42;;;17.62;61.71
61697;BME280;47610;52.252;20.922;2022-10-16T08:53:51;100608.02;;;17.85;61.71
61697;BME280;47610;52.252;20.922;2022-10-16T08:59:17;100613.52;;;18.16;60.91
61697;BME280;47610;52.252;20.922;2022-10-16T09:04:46;100618.48;;;18.44;60.37
61697;BME280;47610;52.252;20.922;2022-10-16T09:10:26;100622.35;;;18.76;59.74
61697;BME280;47610;52.252;20.922;2022-10-16T09:15:58;100617.22;;;19.19;58.57
61697;BME280;47610;52.252;20.922;2022-10-16T09:21:25;100614.23;;;19.60;57.46
61697;BME280;47610;52.252;20.922;2022-10-16T09:26:48;100612.86;;;19.83;56.54
61697;BME280;47610;52.252;20.922;2022-10-16T09:32:14;100604.98;;;19.80;56.08
61697;BME280;47610;52.252;20.922;2022-10-16T09:37:38;100611.89;;;19.72;56.02
61697;BME280;47610;52.252;20.922;2022-10-16T09:43:12;100609.23;;;19.54;56.05
61697;BME280;47610;52.252;20.922;2022-10-16T09:48:39;100610.95;;;19.41;56.73
61697;BME280;47610;52.252;20.922;2022-10-16T09:54:16;100610.00;;;19.38;56.68
61697;BME280;47610;52.252;20.922;2022-10-16T09:59:48;100615.34;;;19.48;56.72
61697;BME280;47610;52.252;20.922;2022-10-16T10:05:20;100617.53;;;19.60;56.54
61697;BME280;47610;52.252;20.922;2022-10-16T10:10:43;100611.55;;;19.65;56.24
61697;BME280;47610;52.252;20.922;2022-10-16T10:16:10;100619.89;;;19.78;56.09
61697;BME280;47610;52.252;20.922;2022-10-16T10:21:39;100612.80;;;19.86;55.76
61697;BME280;47610;52.252;20.922;2022-10-16T10:27:08;100605.23;;;19.90;55.54
61697;BME280;47610;52.252;20.922;2022-10-16T10:32:37;100599.85;;;19.87;55.13
61697;BME280;47610;52.252;20.922;2022-10-16T10:38:10;100600.51;;;19.75;55.22
61697;BME280;47610;52.252;20.922;2022-10-16T10:43:52;100604.83;;;19.69;55.76
61697;BME280;47610;52.252;20.922;2022-10-16T10:49:28;100603.20;;;19.61;55.62
61697;BME280;47610;52.252;20.922;2022-10-16T10:54:59;100606.02;;;19.47;55.83
61697;BME280;47610;52.252;20.922;2022-10-16T11:00:30;100594.92;;;19.43;56.04
61697;BME280;47610;52.252;20.922;2022-10-16T11:05:58;100599.91;;;19.37;56.02
61697;BME280;47610;52.252;20.922;2022-10-16T11:11:27;100599.46;;;19.39;56.35
61697;BME280;47610;52.252;20.922;2022-10-16T11:16:56;100601.48;;;19.40;56.11
61697;BME280;47610;52.252;20.922;2022-10-16T11:22:23;100598.80;;;19.40;56.11
61697;BME280;47610;52.252;20.922;2022-10-16T11:27:51;100591.67;;;19.45;56.12
61697;BME280;47610;52.252;20.922;2022-10-16T11:33:29;100604.43;;;19.50;56.31
61697;BME280;47610;52.252;20.922;2022-10-16T11:38:58;100612.02;;;19.56;56.30
61697;BME280;47610;52.252;20.922;2022-10-16T11:44:34;100604.44;;;19.56;56.24
61697;BME280;47610;52.252;20.922;2022-10-16T11:50:06;100598.12;;;19.57;56.32
61697;BME280;47610;52.252;20.922;2022-10-16T11:55:36;100587.41;;;19.59;56.31
61697;BME280;47610;52.252;20.922;2022-10-16T12:01:11;100583.64;;;19.53;56.45
61697;BME280;47610;52.252;20.922;2022-10-16T12:06:40;100595.15;;;19.48;56.66
61697;BME280;47610;52.252;20.922;2022-10-16T12:12:04;100596.08;;;19.43;56.71
61697;BME280;47610;52.252;20.922;2022-10-16T12:17:34;100598.08;;;19.44;56.70
61697;BME280;47610;52.252;20.922;2022-10-16T12:22:58;100611.04;;;19.50;56.78
61697;BME280;47610;52.252;20.922;2022-10-16T12:28:22;100613.99;;;19.52;56.81
61697;BME280;47610;52.252;20.922;2022-10-16T12:33:59;100608.70;;;19.51;56.75
61697;BME280;47610;52.252;20.922;2022-10-16T12:39:27;100618.89;;;19.47;56.95
61697;BME280;47610;52.252;20.922;2022-10-16T12:44:49;100619.39;;;19.44;57.05
61697;BME280;47610;52.252;20.922;2022-10-16T12:50:30;100623.20;;;19.42;56.94
61697;BME280;47610;52.252;20.922;2022-10-16T12:56:02;100624.42;;;19.35;56.99
61697;BME280;47610;52.252;20.922;2022-10-16T13:01:36;100619.03;;;19.22;57.26
61697;BME280;47610;52.252;20.922;2022-10-16T13:07:13;100608.76;;;19.08;57.45
61697;BME280;47610;52.252;20.922;2022-10-16T13:12:49;100615.41;;;19.01;57.73
61697;BME280;47610;52.252;20.922;2022-10-16T13:18:19;100624.05;;;18.98;58.00
61697;BME280;47610;52.252;20.922;2022-10-16T13:23:50;100632.37;;;18.94;58.17
61697;BME280;47610;52.252;20.922;2022-10-16T13:29:15;100641.39;;;18.87;58.41
61697;BME280;47610;52.252;20.922;2022-10-16T13:34:45;100646.42;;;18.82;58.78
61697;BME280;47610;52.252;20.922;2022-10-16T13:40:20;100645.24;;;18.81;59.08
61697;BME280;47610;52.252;20.922;2022-10-16T13:45:51;100648.14;;;18.80;59.35
61697;BME280;47610;52.252;20.922;2022-10-16T13:51:16;100647.11;;;18.80;59.54
61697;BME280;47610;52.252;20.922;2022-10-16T13:56:40;100649.91;;;18.85;59.70
61697;BME280;47610;52.252;20.922;2022-10-16T14:02:08;100639.33;;;18.91;59.81
61697;BME280;47610;52.252;20.922;2022-10-16T14:07:36;100639.23;;;18.96;59.86
61697;BME280;47610;52.252;20.922;2022-10-16T14:13:00;100641.54;;;18.99;60.00
61697;BME280;47610;52.252;20.922;2022-10-16T14:18:22;100647.12;;;19.04;60.08
61697;BME280;47610;52.252;20.922;2022-10-16T14:23:45;100650.48;;;19.06;60.12
61697;BME280;47610;52.252;20.922;2022-10-16T14:29:13;100659.56;;;19.02;60.22
61697;BME280;47610;52.252;20.922;2022-10-16T14:34:36;100667.64;;;18.98;60.35
61697;BME280;47610;52.252;20.922;2022-10-16T14:39:59;100662.33;;;18.92;60.46
61697;BME280;47610;52.252;20.922;2022-10-16T14:45:26;100665.20;;;18.89;60.79
61697;BME280;47610;52.252;20.922;2022-10-16T14:50:49;100670.16;;;18.84;60.90
61697;BME280;47610;52.252;20.922;2022-10-16T14:56:18;100664.99;;;18.79;60.94
61697;BME280;47610;52.252;20.922;2022-10-16T15:01:41;100669.31;;;18.76;61.12
61697;BME280;47610;52.252;20.922;2022-10-16T15:07:04;100671.92;;;18.74;61.45
61697;BME280;47610;52.252;20.922;2022-10-16T15:12:26;100671.07;;;18.72;61.56
61697;BME280;47610;52.252;20.922;2022-10-16T15:17:48;100686.32;;;18.68;61.71
61697;BME280;47610;52.252;20.922;2022-10-16T15:23:15;100691.65;;;18.61;61.97
61697;BME280;47610;52.252;20.922;2022-10-16T15:28:38;100688.92;;;18.55;62.26
61697;BME280;47610;52.252;20.922;2022-10-16T15:34:00;100685.92;;;18.50;62.56
61697;BME280;47610;52.252;20.922;2022-10-16T15:39:22;100690.27;;;18.46;62.75
61697;BME280;47610;52.252;20.922;2022-10-16T15:44:44;100697.73;;;18.41;63.03
61697;BME280;47610;52.252;20.922;2022-10-16T15:50:11;100702.98;;;18.38;63.24
61697;BME280;47610;52.252;20.922;2022-10-16T15:55:32;100701.30;;;18.36;63.39
61697;BME280;47610;52.252;20.922;2022-10-16T16:01:01;100704.27;;;18.34;63.42
61697;BME280;47610;52.252;20.922;2022-10-16T16:06:23;100708.95;;;18.30;63.56
61697;BME280;47610;52.252;20.922;2022-10-16T16:11:45;100715.86;;;18.28;63.70
61697;BME280;47610;52.252;20.922;2022-10-16T16:17:07;100724.70;;;18.26;63.70
61697;BME280;47610;52.252;20.922;2022-10-16T16:22:29;100727.35;;;18.27;64.01
61697;BME280;47610;52.252;20.922;2022-10-16T16:27:51;100730.92;;;18.25;63.99
61697;BME280;47610;52.252;20.922;2022-10-16T16:33:13;100737.81;;;18.22;64.11
61697;BME280;47610;52.252;20.922;2022-10-16T16:38:35;100747.35;;;18.17;64.31
61697;BME280;47610;52.252;20.922;2022-10-16T16:44:00;100757.33;;;18.14;64.50
61697;BME280;47610;52.252;20.922;2022-10-16T16:49:22;100765.44;;;18.11;64.68
61697;BME280;47610;52.252;20.922;2022-10-16T16:54:44;100767.96;;;18.11;64.83
61697;BME280;47610;52.252;20.922;2022-10-16T17:00:09;100770.84;;;18.09;64.93
61697;BME280;47610;52.252;20.922;2022-10-16T17:05:31;100773.48;;;18.05;65.03
61697;BME280;47610;52.252;20.922;2022-10-16T17:10:53;100778.02;;;17.98;65.24
61697;BME280;47610;52.252;20.922;2022-10-16T17:16:16;100783.74;;;17.89;65.58
61697;BME280;47610;52.252;20.922;2022-10-16T17:21:38;100797.66;;;17.80;65.79
61697;BME280;47610;52.252;20.922;2022-10-16T17:27:00;100799.58;;;17.70;66.23
61697;BME280;47610;52.252;20.922;2022-10-16T17:32:22;100805.04;;;17.61;66.62
61697;BME280;47610;52.252;20.922;2022-10-16T17:37:44;100811.43;;;17.53;66.87
61697;BME280;47610;52.252;20.922;2022-10-16T17:43:06;100816.66;;;17.46;67.22
61697;BME280;47610;52.252;20.922;2022-10-16T17:48:28;100820.85;;;17.42;67.58
61697;BME280;47610;52.252;20.922;2022-10-16T17:53:51;100830.13;;;17.40;67.77
61697;BME280;47610;52.252;20.922;2022-10-16T17:59:14;100837.80;;;17.38;67.97
61697;BME280;47610;52.252;20.922;2022-10-16T18:04:36;100843.63;;;17.36;68.11
61697;BME280;47610;52.252;20.922;2022-10-16T18:09:58;100845.63;;;17.33;68.18
61697;BME280;47610;52.252;20.922;2022-10-16T18:15:20;100845.39;;;17.29;68.43
61697;BME280;47610;52.252;20.922;2022-10-16T18:20:43;100842.22;;;17.24;68.56
61697;BME280;47610;52.252;20.922;2022-10-16T18:26:07;100836.98;;;17.16;68.95
61697;BME280;47610;52.252;20.922;2022-10-16T18:31:30;100845.90;;;17.09;69.26
61697;BME280;47610;52.252;20.922;2022-10-16T18:36:53;100849.38;;;17.02;69.39
61697;BME280;47610;52.252;20.922;2022-10-16T18:42:14;100864.00;;;16.96;69.55
61697;BME280;47610;52.252;20.922;2022-10-16T18:47:37;100865.49;;;16.91;69.89
61697;BME280;47610;52.252;20.922;2022-10-16T18:52:59;100864.43;;;16.85;70.01
61697;BME280;47610;52.252;20.922;2022-10-16T18:58:21;100865.58;;;16.80;70.23
61697;BME280;47610;52.252;20.922;2022-10-16T19:03:44;100882.53;;;16.76;70.36
61697;BME280;47610;52.252;20.922;2022-10-16T19:09:06;100882.90;;;16.70;70.59
61697;BME280;47610;52.252;20.922;2022-10-16T19:14:29;100896.89;;;16.65;70.52
61697;BME280;47610;52.252;20.922;2022-10-16T19:19:51;100908.54;;;16.60;70.83
61697;BME280;47610;52.252;20.922;2022-10-16T19:25:14;100912.42;;;16.53;71.08
61697;BME280;47610;52.252;20.922;2022-10-16T19:30:41;100921.10;;;16.46;71.47
61697;BME280;47610;52.252;20.922;2022-10-16T19:40:12;100926.48;;;16.40;71.75
61697;BME280;47610;52.252;20.922;2022-10-16T19:45:37;100928.02;;;16.33;71.98
61697;BME280;47610;52.252;20.922;2022-10-16T19:51:00;100934.23;;;16.27;72.09
61697;BME280;47610;52.252;20.922;2022-10-16T19:56:25;100938.93;;;16.21;72.49
61697;BME280;47610;52.252;20.922;2022-10-16T20:01:47;100942.02;;;16.15;72.53
61697;BME280;47610;52.252;20.922;2022-10-16T20:07:16;100949.15;;;16.08;72.73
61697;BME280;47610;52.252;20.922;2022-10-16T20:12:38;100952.27;;;16.05;73.09
61697;BME280;47610;52.252;20.922;2022-10-16T20:18:00;100959.07;;;16.03;73.19
61697;BME280;47610;52.252;20.922;2022-10-16T20:23:23;100964.25;;;16.00;73.05
61697;BME280;47610;52.252;20.922;2022-10-16T20:28:45;100967.36;;;15.97;73.18
61697;BME280;47610;52.252;20.922;2022-10-16T20:34:09;100979.06;;;15.94;73.19
61697;BME280;47610;52.252;20.922;2022-10-16T20:39:32;100986.48;;;15.91;73.44
61697;BME280;47610;52.252;20.922;2022-10-16T20:44:54;100994.05;;;15.89;73.56
61697;BME280;47610;52.252;20.922;2022-10-16T20:50:15;101001.19;;;15.87;73.43
61697;BME280;47610;52.252;20.922;2022-10-16T20:55:38;101006.00;;;15.89;73.72
61697;BME280;47610;52.252;20.922;2022-10-16T21:01:06;101007.77;;;15.86;73.41
61697;BME280;47610;52.252;20.922;2022-10-16T21:06:29;101008.72;;;15.84;73.50
61697;BME280;47610;52.252;20.922;2022-10-16T21:11:51;101007.23;;;15.83;73.28
61697;BME280;47610;52.252;20.922;2022-10-16T21:17:13;101016.05;;;15.79;73.34
61697;BME280;47610;52.252;20.922;2022-10-16T21:22:35;101012.48;;;15.76;73.27
61697;BME280;47610;52.252;20.922;2022-10-16T21:27:58;101018.40;;;15.72;73.54
61697;BME280;47610;52.252;20.922;2022-10-16T21:33:20;101023.41;;;15.68;73.23
61697;BME280;47610;52.252;20.922;2022-10-16T21:38:43;101026.27;;;15.64;73.50
61697;BME280;47610;52.252;20.922;2022-10-16T21:44:06;101030.42;;;15.61;73.48
61697;BME280;47610;52.252;20.922;2022-10-16T21:49:29;101034.19;;;15.57;73.52
61697;BME280;47610;52.252;20.922;2022-10-16T21:54:50;101038.76;;;15.53;73.66
61697;BME280;47610;52.252;20.922;2022-10-16T22:00:15;101041.69;;;15.50;73.79
61697;BME280;47610;52.252;20.922;2022-10-16T22:05:37;101051.23;;;15.45;73.86
61697;BME280;47610;52.252;20.922;2022-10-16T22:11:05;101046.77;;;15.40;74.13
61697;BME280;47610;52.252;20.922;2022-10-16T22:16:28;101060.11;;;15.39;74.15
61697;BME280;47610;52.252;20.922;2022-10-16T22:21:52;101061.23;;;15.36;74.27
61697;BME280;47610;52.252;20.922;2022-10-16T22:27:14;101059.65;;;15.34;74.24
61697;BME280;47610;52.252;20.922;2022-10-16T22:32:37;101061.78;;;15.31;74.49
61697;BME280;47610;52.252;20.922;2022-10-16T22:37:59;101070.02;;;15.28;74.73
61697;BME280;47610;52.252;20.922;2022-10-16T22:43:22;101082.39;;;15.23;74.76
61697;BME280;47610;52.252;20.922;2022-10-16T22:48:45;101085.73;;;15.19;74.86
61697;BME280;47610;52.252;20.922;2022-10-16T22:54:07;101088.63;;;15.16;74.95
61697;BME280;47610;52.252;20.922;2022-10-16T22:59:29;101096.92;;;15.14;74.86
61697;BME280;47610;52.252;20.922;2022-10-16T23:04:53;101098.73;;;15.11;75.25
61697;BME280;47610;52.252;20.922;2022-10-16T23:10:15;101102.95;;;15.08;75.26
61697;BME280;47610;52.252;20.922;2022-10-16T23:15:39;101100.70;;;15.07;75.15
61697;BME280;47610;52.252;20.922;2022-10-16T23:21:00;101103.16;;;15.03;75.22
61697;BME280;47610;52.252;20.922;2022-10-16T23:26:25;101104.69;;;14.98;75.61
61697;BME280;47610;52.252;20.922;2022-10-16T23:31:48;101108.20;;;14.95;75.56
61697;BME280;47610;52.252;20.922;2022-10-16T23:37:10;101109.52;;;14.92;75.50
61697;BME280;47610;52.252;20.922;2022-10-16T23:42:33;101122.77;;;14.88;75.77
61697;BME280;47610;52.252;20.922;2022-10-16T23:47:55;101131.02;;;14.83;75.94
61697;BME280;47610;52.252;20.922;2022-10-16T23:53:18;101145.38;;;14.80;76.13
61697;BME280;47610;52.252;20.922;2022-10-16T23:58:41;101156.82;;;14.77;76.08
